createdAt,value
2019-04-11T00:02:14.816Z,57.58
2019-04-11T00:04:44.190Z,57.62
2019-04-11T00:07:14.239Z,58.43
2019-04-11T00:09:43.490Z,57.81
2019-04-11T00:12:12.660Z,58.42
2019-04-11T00:14:42.164Z,58.86
2019-04-11T00:17:11.941Z,58.24
2019-04-11T00:19:41.147Z,58.08
2019-04-11T00:22:11.092Z,57.36
2019-04-11T00:24:40.369Z,57.35
2019-04-11T00:27:09.513Z,57.68
2019-04-11T00:29:38.723Z,58.11
2019-04-11T00:32:09.300Z,58.73
2019-04-11T00:34:39.351Z,58.25
2019-04-11T00:37:08.697Z,58.95
2019-04-11T00:39:37.763Z,59.24
2019-04-11T00:42:06.867Z,58.48
2019-04-11T00:44:36.017Z,58.37
2019-04-11T00:47:05.123Z,59.18
2019-04-11T00:49:34.647Z,58.73
2019-04-11T00:52:04.552Z,59.07
2019-04-11T00:54:33.777Z,59.22
2019-04-11T00:57:02.951Z,59.24
2019-04-11T00:59:32.242Z,59.37
2019-04-11T01:02:01.458Z,59.66
2019-04-11T01:04:30.672Z,60.74
2019-04-11T01:07:00.700Z,60.50
2019-04-11T01:09:30.573Z,59.26
2019-04-11T01:12:00.480Z,58.76
2019-04-11T01:14:29.975Z,58.04
2019-04-11T01:16:59.114Z,59.30
2019-04-11T01:19:28.991Z,58.34
2019-04-11T01:21:59.479Z,58.03
2019-04-11T01:24:28.710Z,58.18
2019-04-11T01:26:57.840Z,58.58
2019-04-11T01:29:27.329Z,59.03
2019-04-11T01:32:02.233Z,59.34
2019-04-11T01:34:31.385Z,59.54
2019-04-11T01:37:01.598Z,59.96
2019-04-11T01:39:41.636Z,60.33
2019-04-11T01:42:11.145Z,60.32
2019-04-11T01:44:41.014Z,60.12
2019-04-11T01:47:12.935Z,60.29
2019-04-11T01:49:42.081Z,60.27
2019-04-11T01:52:11.917Z,60.57
2019-04-11T01:54:41.207Z,60.92
2019-04-11T01:57:10.313Z,61.07
2019-04-11T01:59:39.659Z,60.78
2019-04-11T02:02:46.485Z,60.87
2019-04-11T02:05:27.547Z,60.95
2019-04-11T02:07:56.671Z,61.08
2019-04-11T02:10:26.565Z,61.12
2019-04-11T02:12:57.454Z,61.52
2019-04-11T02:15:28.260Z,61.10
2019-04-11T02:17:57.397Z,61.18
2019-04-11T02:20:27.159Z,61.34
2019-04-11T02:23:07.775Z,61.73
2019-04-11T02:25:45.286Z,61.59
2019-04-11T02:28:16.825Z,61.70
2019-04-11T02:30:48.783Z,61.78
2019-04-11T02:33:18.452Z,61.81
2019-04-11T02:35:49.376Z,62.10
2019-04-11T02:38:19.097Z,62.07
2019-04-11T02:40:49.852Z,62.52
2019-04-11T02:43:20.420Z,62.62
2019-04-11T02:45:58.220Z,62.76
2019-04-11T02:48:20.873Z,62.97
2019-04-11T02:50:50.915Z,62.99
2019-04-11T02:53:21.276Z,63.17
2019-04-11T02:55:53.903Z,63.11
2019-04-11T02:58:24.940Z,62.91
2019-04-11T03:00:55.936Z,63.03
2019-04-11T03:03:25.283Z,63.23
2019-04-11T03:05:55.880Z,63.22
2019-04-11T03:08:26.996Z,63.19
2019-04-11T03:10:57.582Z,63.05
2019-04-11T03:13:27.285Z,63.08
2019-04-11T03:16:10.163Z,62.98
2019-04-11T03:18:46.058Z,62.79
2019-04-11T03:21:05.693Z,62.71
2019-04-11T03:23:30.919Z,62.90
2019-04-11T03:26:00.709Z,62.99
2019-04-11T03:28:31.447Z,62.88
2019-04-11T03:31:33.076Z,63.05
2019-04-11T03:38:56.983Z,63.22
2019-04-11T03:41:23.507Z,63.23
2019-04-11T03:43:48.578Z,63.31
2019-04-11T03:46:25.050Z,63.35
2019-04-11T03:48:51.118Z,63.48
2019-04-11T03:51:11.061Z,63.58
2019-04-11T03:53:41.120Z,63.74
2019-04-11T03:56:12.115Z,63.70
2019-04-11T03:58:42.301Z,63.83
2019-04-11T04:01:14.049Z,64.11
2019-04-11T04:03:44.687Z,64.27
2019-04-11T04:06:14.839Z,64.33
2019-04-11T04:08:44.512Z,64.33
2019-04-11T04:11:19.073Z,64.44
2019-04-11T04:14:08.000Z,64.85
2019-04-11T04:16:48.266Z,64.63
2019-04-11T04:19:30.682Z,64.74
2019-04-11T04:22:13.472Z,64.97
2019-04-11T04:24:44.779Z,65.05
2019-04-11T04:27:15.438Z,65.03
2019-04-11T04:29:49.018Z,65.17
2019-04-11T04:32:16.334Z,65.42
2019-04-11T04:34:46.420Z,65.57
2019-04-11T04:37:18.135Z,65.56
2019-04-11T04:39:47.984Z,65.88
2019-04-11T04:42:24.903Z,65.72
2019-04-11T04:44:49.320Z,66.24
2019-04-11T04:47:25.044Z,66.21
2019-04-11T04:49:52.151Z,66.06
2019-04-11T04:52:21.453Z,66.25
2019-04-11T04:54:52.706Z,66.30
2019-04-11T04:57:21.843Z,66.42
2019-04-11T04:59:50.991Z,66.60
2019-04-11T05:02:20.698Z,66.84
2019-04-11T05:04:50.036Z,66.38
2019-04-11T05:07:19.497Z,66.73
2019-04-11T05:09:50.138Z,66.59
2019-04-11T05:12:20.614Z,66.66
2019-04-11T05:14:49.980Z,67.06
2019-04-11T05:17:19.502Z,66.72
2019-04-11T05:19:48.829Z,66.41
2019-04-11T05:22:19.000Z,66.46
2019-04-11T05:24:48.128Z,66.37
2019-04-11T05:27:17.542Z,66.10
2019-04-11T05:29:46.644Z,66.44
2019-04-11T05:32:15.773Z,66.44
2019-04-11T05:34:45.639Z,66.18
2019-04-11T05:37:15.336Z,66.26
2019-04-11T05:39:44.974Z,65.97
2019-04-11T05:42:17.758Z,66.47
2019-04-11T05:44:45.177Z,66.04
2019-04-11T05:47:18.173Z,65.78
2019-04-11T05:49:56.872Z,65.92
2019-04-11T05:52:27.403Z,65.95
2019-04-11T05:55:00.711Z,65.66
2019-04-11T05:57:35.201Z,65.30
2019-04-11T06:00:00.912Z,65.12
2019-04-11T06:02:39.572Z,64.98
2019-04-11T06:05:24.535Z,64.81
2019-04-11T06:07:59.923Z,64.91
2019-04-11T06:10:33.809Z,64.68
2019-04-11T06:13:28.784Z,64.48
2019-04-11T06:16:02.341Z,64.06
2019-04-11T06:18:52.147Z,63.60
2019-04-11T06:21:31.746Z,63.22
2019-04-11T06:24:25.998Z,63.18
2019-04-11T06:27:15.400Z,62.84
2019-04-11T06:30:10.100Z,62.50
2019-04-11T06:32:56.800Z,62.42
2019-04-11T06:35:32.399Z,62.18
2019-04-11T06:38:24.670Z,61.92
2019-04-11T06:41:02.128Z,61.61
2019-04-11T06:43:43.031Z,61.16
2019-04-11T06:46:26.105Z,60.35
2019-04-11T06:49:03.052Z,59.65
2019-04-11T06:51:37.817Z,59.65
2019-04-11T06:54:17.501Z,59.25
2019-04-11T06:56:48.138Z,59.37
2019-04-11T06:59:20.720Z,58.96
2019-04-11T07:01:50.865Z,59.20
2019-04-11T07:04:23.704Z,58.52
2019-04-11T07:06:54.430Z,58.39
2019-04-11T07:09:51.366Z,57.64
2019-04-11T07:12:45.466Z,56.69
2019-04-11T07:15:52.840Z,56.19
2019-04-11T07:18:48.414Z,55.51
2019-04-11T07:21:17.638Z,55.06
2019-04-11T07:24:05.351Z,55.52
2019-04-11T07:26:47.840Z,54.68
2019-04-11T07:29:34.568Z,53.14
2019-04-11T07:32:29.918Z,49.49
2019-04-11T07:35:17.248Z,42.29
2019-04-11T07:37:53.172Z,37.30
2019-04-11T07:40:56.407Z,33.50
2019-04-11T07:43:29.212Z,33.08
2019-04-11T07:46:25.061Z,32.89
2019-04-11T07:49:08.229Z,31.05
2019-04-11T07:51:41.349Z,30.84
2019-04-11T07:54:18.228Z,31.07
2019-04-11T07:57:06.431Z,31.16
2019-04-11T08:00:00.458Z,29.31
2019-04-11T08:02:48.535Z,28.12
2019-04-11T08:05:51.807Z,30.19
2019-04-11T08:08:45.413Z,31.12
2019-04-11T08:11:25.615Z,31.52
2019-04-11T08:14:28.755Z,30.88
2019-04-11T08:17:07.134Z,31.79
2019-04-11T08:19:53.807Z,32.77
2019-04-11T08:22:45.319Z,32.60
2019-04-11T08:25:33.472Z,32.54
2019-04-11T08:28:07.833Z,30.90
2019-04-11T08:30:55.210Z,31.46
2019-04-11T08:33:24.927Z,30.58
2019-04-11T08:36:13.795Z,30.27
2019-04-11T08:38:42.851Z,30.14
2019-04-11T08:41:34.025Z,30.04
2019-04-11T08:44:34.346Z,28.58
2019-04-11T08:47:07.907Z,28.43
2019-04-11T08:49:50.138Z,27.31
2019-04-11T08:52:50.317Z,27.41
2019-04-11T08:55:43.034Z,28.23
2019-04-11T08:58:09.571Z,28.27
2019-04-11T09:00:51.200Z,28.23
2019-04-11T09:03:42.461Z,27.83
2019-04-11T09:06:14.713Z,27.25
2019-04-11T09:09:11.194Z,26.85
2019-04-11T09:11:47.004Z,27.19
2019-04-11T09:14:41.324Z,28.59
2019-04-11T09:17:12.941Z,28.78
2019-04-11T09:20:16.388Z,28.70
2019-04-11T09:22:50.367Z,27.37
2019-04-11T09:25:37.118Z,29.19
2019-04-11T09:28:25.331Z,29.94
2019-04-11T09:31:17.053Z,30.07
2019-04-11T09:34:04.007Z,29.66
2019-04-11T09:36:51.355Z,29.94
2019-04-11T09:39:45.642Z,29.21
2019-04-11T09:42:32.520Z,27.57
2019-04-11T09:45:19.660Z,28.94
2019-04-11T09:48:12.480Z,29.63
2019-04-11T09:50:59.363Z,30.37
2019-04-11T09:53:30.272Z,29.18
2019-04-11T09:56:21.443Z,29.74
2019-04-11T09:58:51.895Z,30.83
2019-04-11T10:01:38.754Z,30.23
2019-04-11T10:04:08.871Z,30.58
2019-04-11T10:07:06.036Z,29.04
2019-04-11T10:10:00.299Z,30.46
2019-04-11T10:12:46.817Z,32.01
2019-04-11T10:15:18.868Z,31.37
2019-04-11T10:18:05.447Z,32.02
2019-04-11T10:20:35.067Z,33.67
2019-04-11T10:23:22.917Z,34.35
2019-04-11T10:25:56.007Z,34.08
2019-04-11T10:29:00.243Z,34.59
2019-04-11T10:31:30.965Z,34.93
2019-04-11T10:34:21.685Z,34.80
2019-04-11T10:36:56.888Z,34.34
2019-04-11T10:39:54.030Z,33.76
2019-04-11T10:42:26.307Z,34.06
2019-04-11T10:45:31.034Z,33.57
2019-04-11T10:48:05.471Z,34.00
2019-04-11T10:51:02.894Z,32.93
2019-04-11T10:53:33.285Z,33.49
2019-04-11T10:56:30.630Z,33.33
2019-04-11T10:59:01.708Z,34.22
2019-04-11T11:01:50.629Z,33.83
2019-04-11T11:04:48.501Z,32.85
2019-04-11T11:07:24.393Z,33.48
2019-04-11T11:10:09.220Z,32.54
2019-04-11T11:12:49.753Z,32.07
2019-04-11T11:15:41.880Z,33.19
2019-04-11T11:19:03.266Z,34.21
2019-04-11T11:21:00.843Z,34.74
2019-04-11T11:24:00.693Z,35.15
2019-04-11T11:26:38.894Z,36.25
2019-04-11T11:29:45.481Z,37.17
2019-04-11T11:32:31.845Z,37.59
2019-04-11T11:35:22.430Z,36.71
2019-04-11T11:38:01.830Z,37.13
2019-04-11T11:40:58.865Z,36.82
2019-04-11T11:43:33.081Z,34.78
2019-04-11T11:46:25.615Z,34.34
2019-04-11T11:49:12.307Z,36.24
2019-04-11T11:52:06.774Z,36.37
2019-04-11T11:54:37.803Z,37.50
2019-04-11T11:57:14.977Z,37.64
2019-04-11T11:59:46.256Z,37.04
2019-04-11T12:02:21.503Z,35.66
2019-04-11T12:05:15.845Z,35.64
2019-04-11T12:07:51.453Z,35.95
2019-04-11T12:10:45.882Z,35.00
2019-04-11T12:13:40.232Z,36.09
2019-04-11T12:16:21.883Z,35.36
2019-04-11T12:19:02.696Z,34.60
2019-04-11T12:21:33.268Z,35.06
2019-04-11T12:24:30.503Z,35.67
2019-04-11T12:27:18.606Z,33.93
2019-04-11T12:30:07.917Z,34.20
2019-04-11T12:32:41.059Z,34.02
2019-04-11T12:35:30.648Z,35.02
2019-04-11T12:38:05.384Z,34.72
2019-04-11T12:40:51.667Z,35.18
2019-04-11T12:43:20.827Z,35.40
2019-04-11T12:46:07.417Z,35.02
2019-04-11T12:48:43.239Z,34.72
2019-04-11T12:51:37.565Z,34.87
2019-04-11T12:54:16.549Z,34.57
2019-04-11T12:57:22.893Z,34.91
2019-04-11T12:59:58.258Z,34.40
2019-04-11T13:02:46.342Z,33.16
2019-04-11T13:05:16.820Z,34.61
2019-04-11T13:08:14.013Z,35.23
2019-04-11T13:10:43.231Z,36.04
2019-04-11T13:13:29.523Z,36.07
2019-04-11T13:16:11.970Z,36.26
2019-04-11T13:18:59.813Z,36.46
2019-04-11T13:21:33.883Z,36.12
2019-04-11T13:24:20.775Z,36.30
2019-04-11T13:27:08.920Z,36.51
2019-04-11T13:30:03.175Z,36.37
2019-04-11T13:32:50.272Z,36.86
2019-04-11T13:35:36.413Z,36.69
2019-04-11T13:38:10.775Z,35.62
2019-04-11T13:41:01.717Z,36.38
2019-04-11T13:43:45.521Z,36.67
2019-04-11T13:46:33.646Z,36.77
2019-04-11T13:49:21.741Z,35.65
2019-04-11T13:52:18.868Z,35.92
2019-04-11T13:55:10.132Z,36.55
2019-04-11T13:57:58.253Z,35.53
2019-04-11T14:00:42.080Z,35.47
2019-04-11T14:03:42.245Z,35.69
2019-04-11T14:06:30.755Z,33.03
2019-04-11T14:09:24.974Z,33.72
2019-04-11T14:11:58.918Z,34.11
2019-04-11T14:14:38.991Z,34.35
2019-04-11T14:17:27.104Z,35.07
2019-04-11T14:20:13.930Z,33.27
2019-04-11T14:23:15.001Z,34.02
2019-04-11T14:26:15.891Z,33.52
2019-04-11T14:28:48.256Z,34.99
2019-04-11T14:31:29.528Z,34.84
2019-04-11T14:34:04.493Z,34.63
2019-04-11T14:37:01.432Z,35.17
2019-04-11T14:39:33.564Z,35.08
2019-04-11T14:42:20.616Z,34.73
2019-04-11T14:44:50.226Z,34.82
2019-04-11T14:47:44.495Z,35.53
2019-04-11T14:50:13.734Z,35.17
2019-04-11T14:52:59.758Z,35.43
2019-04-11T14:55:28.890Z,35.47
2019-04-11T14:58:15.479Z,35.65
2019-04-11T15:00:44.604Z,35.37
2019-04-11T15:03:32.684Z,35.84
2019-04-11T15:06:31.396Z,35.06
2019-04-11T15:09:34.650Z,34.54
2019-04-11T15:12:10.590Z,34.11
2019-04-11T15:15:13.709Z,34.48
2019-04-11T15:17:42.848Z,35.70
2019-04-11T15:20:34.781Z,35.29
2019-04-11T15:23:14.160Z,35.87
2019-04-11T15:26:08.865Z,35.31
2019-04-11T15:29:13.829Z,35.97
2019-04-11T15:32:09.411Z,35.38
2019-04-11T15:34:53.140Z,36.10
2019-04-11T15:37:47.580Z,35.72
2019-04-11T15:40:34.271Z,36.27
2019-04-11T15:43:22.370Z,36.29
2019-04-11T15:46:05.920Z,35.84
2019-04-11T15:48:57.234Z,35.97
2019-04-11T15:51:35.156Z,36.14
2019-04-11T15:54:26.778Z,36.38
2019-04-11T15:57:16.690Z,36.04
2019-04-11T16:00:02.007Z,36.32
2019-04-11T16:02:52.970Z,36.10
2019-04-11T16:05:50.011Z,36.69
2019-04-11T16:08:44.651Z,38.07
2019-04-11T16:11:51.605Z,38.29
2019-04-11T16:14:24.308Z,37.48
2019-04-11T16:17:13.829Z,37.45
2019-04-11T16:19:57.485Z,38.43
2019-04-11T16:22:44.529Z,38.71
2019-04-11T16:25:29.203Z,37.70
2019-04-11T16:28:16.417Z,37.35
2019-04-11T16:30:53.753Z,37.84
2019-04-11T16:33:40.589Z,38.15
2019-04-11T16:36:35.165Z,38.42
2019-04-11T16:39:25.089Z,38.40
2019-04-11T16:42:07.837Z,38.93
2019-04-11T16:44:55.714Z,39.14
2019-04-11T16:47:44.025Z,38.96
2019-04-11T16:50:13.179Z,39.61
2019-04-11T16:52:42.323Z,39.51
2019-04-11T16:55:11.459Z,39.74
2019-04-11T16:57:43.834Z,39.89
2019-04-11T17:00:13.189Z,39.98
2019-04-11T17:02:42.355Z,40.17
2019-04-11T17:05:11.483Z,40.29
2019-04-11T17:07:59.783Z,40.39
2019-04-11T17:10:46.487Z,39.93
2019-04-11T17:13:15.691Z,39.85
2019-04-11T17:15:44.883Z,40.18
2019-04-11T17:18:14.001Z,41.02
2019-04-11T17:20:43.141Z,40.46
2019-04-11T17:23:12.296Z,40.61
2019-04-11T17:25:41.438Z,40.30
2019-04-11T17:28:10.613Z,39.76
2019-04-11T17:30:39.820Z,39.94
2019-04-11T17:33:08.973Z,40.27
2019-04-11T17:35:38.188Z,40.52
2019-04-11T17:38:08.096Z,40.95
2019-04-11T17:40:39.501Z,39.86
2019-04-11T17:43:08.284Z,39.82
2019-04-11T17:45:37.516Z,39.75
2019-04-11T17:48:06.677Z,40.29
2019-04-11T17:50:35.955Z,40.54
2019-04-11T17:53:05.077Z,40.37
2019-04-11T17:55:34.241Z,40.49
2019-04-11T17:58:03.373Z,40.41
2019-04-11T18:00:36.102Z,40.48
2019-04-11T18:03:05.512Z,39.90
2019-04-11T18:05:34.646Z,40.27
2019-04-11T18:08:03.893Z,40.64
2019-04-11T18:10:33.011Z,40.57
2019-04-11T18:13:02.193Z,40.94
2019-04-11T18:15:31.843Z,40.78
2019-04-11T18:18:03.154Z,39.31
2019-04-11T18:20:31.895Z,39.87
2019-04-11T18:23:01.050Z,40.61
2019-04-11T18:25:30.182Z,40.87
2019-04-11T18:27:59.367Z,40.87
2019-04-11T18:30:28.541Z,41.16
2019-04-11T18:32:57.688Z,41.50
2019-04-11T18:35:26.830Z,41.22
2019-04-11T18:37:55.941Z,41.01
2019-04-11T18:40:25.284Z,41.04
2019-04-11T18:42:54.426Z,41.16
2019-04-11T18:45:23.556Z,41.37
2019-04-11T18:47:52.685Z,41.60
2019-04-11T18:50:23.033Z,41.26
2019-04-11T18:52:52.642Z,40.78
2019-04-11T18:55:21.770Z,41.14
2019-04-11T18:57:50.928Z,41.53
2019-04-11T19:00:21.077Z,40.46
2019-04-11T19:02:50.225Z,41.08
2019-04-11T19:05:28.674Z,40.75
2019-04-11T19:07:50.372Z,41.07
2019-04-11T19:10:20.210Z,40.93
2019-04-11T19:12:49.333Z,41.16
2019-04-11T19:15:18.553Z,41.54
2019-04-11T19:17:47.708Z,40.95
2019-04-11T19:20:19.152Z,41.21
2019-04-11T19:22:49.026Z,41.46
2019-04-11T19:25:18.183Z,41.95
2019-04-11T19:27:50.448Z,40.40
2019-04-11T19:30:18.313Z,40.99
2019-04-11T19:32:47.461Z,41.60
2019-04-11T19:35:16.638Z,42.10
2019-04-11T19:37:45.767Z,41.71
2019-04-11T19:40:16.419Z,42.56
2019-04-11T19:42:48.879Z,42.45
2019-04-11T19:45:16.926Z,41.48
2019-04-11T19:47:51.454Z,41.98
2019-04-11T19:50:18.445Z,41.34
2019-04-11T19:52:47.579Z,41.57
2019-04-11T19:55:34.686Z,42.30
2019-04-11T19:58:04.073Z,42.07
2019-04-11T20:00:33.733Z,42.48
2019-04-11T20:03:02.842Z,42.07
2019-04-11T20:05:32.297Z,42.38
2019-04-11T20:08:01.396Z,42.52
2019-04-11T20:10:31.346Z,42.38
2019-04-11T20:13:01.902Z,42.07
2019-04-11T20:15:36.864Z,42.32
2019-04-11T20:18:02.325Z,42.44
2019-04-11T20:20:31.439Z,42.74
2019-04-11T20:23:00.583Z,42.50
2019-04-11T20:25:29.713Z,42.96
2019-04-11T20:27:58.981Z,42.97
2019-04-11T20:30:28.123Z,43.27
2019-04-11T20:32:57.281Z,42.90
2019-04-11T20:35:29.193Z,43.35
2019-04-11T20:37:57.363Z,43.47
2019-04-11T20:40:26.463Z,43.34
2019-04-11T20:42:55.596Z,43.40
2019-04-11T20:45:28.481Z,43.56
2019-04-11T20:47:59.858Z,43.51
2019-04-11T20:50:28.151Z,43.60
2019-04-11T20:53:00.449Z,43.52
2019-04-11T20:55:28.306Z,40.32
2019-04-11T20:57:57.465Z,41.09
2019-04-11T21:00:26.580Z,41.96
2019-04-11T21:02:58.141Z,41.58
2019-04-11T21:05:30.490Z,40.09
2019-04-11T21:07:57.587Z,41.20
2019-04-11T21:10:26.732Z,41.30
2019-04-11T21:12:55.855Z,41.41
2019-04-11T21:15:24.995Z,41.51
2019-04-11T21:17:56.067Z,41.93
2019-04-11T21:20:25.089Z,42.23
2019-04-11T21:22:54.544Z,42.63
2019-04-11T21:25:26.099Z,42.42
2019-04-11T21:27:56.751Z,42.66
2019-04-11T21:30:25.519Z,42.86
2019-04-11T21:32:54.663Z,42.85
2019-04-11T21:35:23.789Z,43.03
2019-04-11T21:37:52.907Z,43.28
2019-04-11T21:40:22.039Z,43.43
2019-04-11T21:42:51.166Z,43.57
2019-04-11T21:45:20.357Z,43.97
2019-04-11T21:47:49.510Z,44.37
2019-04-11T21:50:18.659Z,44.41
2019-04-11T21:52:47.820Z,44.77
2019-04-11T21:55:16.948Z,44.73
2019-04-11T21:57:48.890Z,44.85
2019-04-11T22:00:23.540Z,45.12
2019-04-11T22:02:54.496Z,45.02
2019-04-11T22:05:23.704Z,44.96
2019-04-11T22:07:52.883Z,45.23
2019-04-11T22:10:22.014Z,45.66
2019-04-11T22:12:51.165Z,45.97
2019-04-11T22:15:20.310Z,46.34
2019-04-11T22:17:49.419Z,46.08
2019-04-11T22:20:18.583Z,46.21
2019-04-11T22:22:47.721Z,46.20
2019-04-11T22:25:16.868Z,46.51
2019-04-11T22:27:46.028Z,46.68
2019-04-11T22:30:17.820Z,46.58
2019-04-11T22:32:52.347Z,46.79
2019-04-11T22:35:21.495Z,46.84
2019-04-11T22:37:50.612Z,46.97
2019-04-11T22:40:19.719Z,46.96
2019-04-11T22:42:48.889Z,47.01
2019-04-11T22:45:18.056Z,48.42
2019-04-11T22:47:47.215Z,47.75
2019-04-11T22:50:16.353Z,47.56
2019-04-11T22:52:45.906Z,47.74
2019-04-11T22:55:15.066Z,47.77
2019-04-11T22:57:44.366Z,48.04
2019-04-11T23:00:15.327Z,48.34
2019-04-11T23:03:04.204Z,48.36
2019-04-11T23:05:33.380Z,48.26
2019-04-11T23:08:02.915Z,48.63
2019-04-11T23:10:32.172Z,48.40
2019-04-11T23:13:01.304Z,48.43
2019-04-11T23:15:30.455Z,48.77
2019-04-11T23:17:59.582Z,49.12
2019-04-11T23:20:28.735Z,49.24
2019-04-11T23:22:58.024Z,49.18
2019-04-11T23:25:27.164Z,49.40
2019-04-11T23:27:56.280Z,49.90
2019-04-11T23:30:25.456Z,49.83
2019-04-11T23:32:54.586Z,50.43
2019-04-11T23:35:23.725Z,50.34
2019-04-11T23:37:52.861Z,50.22
2019-04-11T23:40:22.639Z,50.17
2019-04-11T23:42:51.834Z,50.67
2019-04-11T23:45:24.199Z,51.13
2019-04-11T23:47:54.309Z,50.92
2019-04-11T23:50:25.281Z,50.90
2019-04-11T23:52:56.997Z,51.02
2019-04-11T23:55:25.244Z,51.47
2019-04-11T23:57:54.343Z,51.76
